createdAt,value
2023-05-21T00:00:36.002Z,100197.48
2023-05-21T00:06:01.622Z,100188.17
2023-05-21T00:11:04.937Z,100185.44
2023-05-21T00:16:08.058Z,100186.98
2023-05-21T00:21:12.355Z,100189.98
2023-05-21T00:26:15.662Z,100188.00
2023-05-21T00:31:19.250Z,100190.00
2023-05-21T00:36:23.820Z,100193.22
2023-05-21T00:41:26.799Z,100195.04
2023-05-21T00:46:30.115Z,100199.92
2023-05-21T00:51:33.442Z,100199.35
2023-05-21T00:56:37.017Z,100196.05
2023-05-21T01:01:40.263Z,100190.42
2023-05-21T01:06:43.131Z,100187.23
2023-05-21T01:11:51.953Z,100182.46
2023-05-21T01:16:55.226Z,100180.06
2023-05-21T01:22:06.431Z,100173.59
2023-05-21T01:27:10.680Z,100173.61
2023-05-21T01:32:42.750Z,100171.16
2023-05-21T01:37:58.125Z,100175.82
2023-05-21T01:43:02.205Z,100178.15
2023-05-21T01:48:07.577Z,100179.34
2023-05-21T01:53:10.799Z,100175.29
2023-05-21T01:58:14.315Z,100168.95
2023-05-21T02:03:19.633Z,100166.11
2023-05-21T02:08:23.523Z,100164.25
2023-05-21T02:13:27.042Z,100163.86
2023-05-21T02:18:30.148Z,100163.05
2023-05-21T02:23:33.111Z,100162.69
2023-05-21T02:28:36.539Z,100160.13
2023-05-21T02:33:41.938Z,100162.76
2023-05-21T02:38:45.529Z,100163.27
2023-05-21T02:43:48.492Z,100164.34
2023-05-21T02:48:51.436Z,100162.90
2023-05-21T02:53:54.415Z,100165.77
2023-05-21T02:58:57.389Z,100161.09
2023-05-21T03:04:00.591Z,100161.38
2023-05-21T03:09:04.813Z,100161.84
2023-05-21T03:14:07.789Z,100158.66
2023-05-21T03:19:11.659Z,100157.23
2023-05-21T03:24:15.306Z,100148.60
2023-05-21T03:29:18.333Z,100144.39
2023-05-21T03:34:21.593Z,100143.86
2023-05-21T03:39:24.477Z,100144.70
2023-05-21T03:44:28.101Z,100137.23
2023-05-21T03:49:31.073Z,100134.23
2023-05-21T03:54:34.035Z,100131.11
2023-05-21T03:59:37.090Z,100132.68
2023-05-21T04:04:40.246Z,100128.58
2023-05-21T04:09:43.246Z,100127.31
2023-05-21T04:14:46.674Z,100125.38
2023-05-21T04:19:49.634Z,100125.10
2023-05-21T04:24:54.589Z,100120.30
2023-05-21T04:29:58.174Z,100121.64
2023-05-21T04:35:02.147Z,100123.35
2023-05-21T04:40:06.804Z,100123.73
2023-05-21T04:45:10.526Z,100121.11
2023-05-21T04:50:13.667Z,100116.20
2023-05-21T04:55:19.146Z,100115.83
2023-05-21T05:00:22.711Z,100115.86
2023-05-21T05:05:26.235Z,100115.46
2023-05-21T05:10:29.236Z,100118.78
2023-05-21T05:15:32.199Z,100117.97
2023-05-21T05:20:35.187Z,100113.18
2023-05-21T05:25:41.178Z,100110.90
2023-05-21T05:30:44.423Z,100108.85
2023-05-21T05:35:47.552Z,100112.42
2023-05-21T05:40:50.559Z,100112.35
2023-05-21T05:45:54.690Z,100111.81
2023-05-21T05:50:57.697Z,100114.77
2023-05-21T05:56:00.668Z,100114.52
2023-05-21T06:01:03.672Z,100114.64
2023-05-21T06:06:06.543Z,100108.35
2023-05-21T06:11:11.012Z,100106.27
2023-05-21T06:16:14.073Z,100102.27
2023-05-21T06:21:17.164Z,100102.52
2023-05-21T06:26:20.168Z,100100.88
2023-05-21T06:31:23.060Z,100097.77
2023-05-21T06:36:29.887Z,100096.05
2023-05-21T06:41:33.138Z,100092.94
2023-05-21T06:46:36.462Z,100095.74
2023-05-21T06:51:39.512Z,100091.42
2023-05-21T06:56:42.495Z,100088.67
2023-05-21T07:01:45.568Z,100085.52
2023-05-21T07:06:48.658Z,100085.25
2023-05-21T07:11:53.087Z,100086.81
2023-05-21T07:16:56.127Z,100086.00
2023-05-21T07:21:59.188Z,100080.02
2023-05-21T07:27:06.478Z,100080.89
2023-05-21T07:32:14.533Z,100081.61
2023-05-21T07:37:17.712Z,100079.44
2023-05-21T07:42:20.821Z,100082.67
2023-05-21T07:47:23.867Z,100081.60
2023-05-21T07:52:26.940Z,100081.88
2023-05-21T07:57:29.973Z,100075.26
2023-05-21T08:02:32.982Z,100069.33
2023-05-21T08:07:36.516Z,100069.99
2023-05-21T08:12:39.546Z,100074.00
2023-05-21T08:17:42.572Z,100064.45
2023-05-21T08:22:45.542Z,100069.41
2023-05-21T08:27:50.383Z,100065.83
2023-05-21T08:32:55.380Z,100065.80
2023-05-21T08:37:59.012Z,100067.41
2023-05-21T08:43:02.017Z,100067.70
2023-05-21T08:48:06.657Z,100063.95
2023-05-21T08:53:19.849Z,100065.79
2023-05-21T08:58:33.844Z,100067.98
2023-05-21T09:03:40.631Z,100062.48
2023-05-21T09:08:46.194Z,100060.38
2023-05-21T09:13:51.474Z,100061.23
2023-05-21T09:18:54.511Z,100057.70
2023-05-21T09:24:00.020Z,100055.61
2023-05-21T09:29:08.871Z,100049.71
2023-05-21T09:34:15.555Z,100050.97
2023-05-21T09:39:29.713Z,100046.91
2023-05-21T09:44:38.723Z,100046.83
2023-05-21T09:49:44.340Z,100047.52
2023-05-21T09:54:47.294Z,100043.13
2023-05-21T09:59:50.584Z,100033.40
2023-05-21T10:04:55.740Z,100039.06
2023-05-21T10:10:01.910Z,100031.32
2023-05-21T10:15:09.415Z,100029.75
2023-05-21T10:20:13.231Z,100031.27
2023-05-21T10:25:17.527Z,100031.65
2023-05-21T10:30:25.020Z,100025.70
2023-05-21T10:35:29.000Z,100023.37
2023-05-21T10:40:33.996Z,100023.58
2023-05-21T10:45:48.211Z,100022.97
2023-05-21T10:51:23.993Z,100020.08
2023-05-21T10:56:48.014Z,100018.61
2023-05-21T11:01:53.261Z,100011.38
2023-05-21T11:07:00.471Z,100008.66
2023-05-21T11:12:04.944Z,100011.49
2023-05-21T11:17:14.675Z,100008.89
2023-05-21T11:22:31.010Z,100006.61
2023-05-21T11:27:36.023Z,100005.73
2023-05-21T11:32:41.276Z,100001.79
2023-05-21T11:37:53.646Z,100003.33
2023-05-21T11:42:57.401Z,100000.91
2023-05-21T11:48:00.750Z,99996.19
2023-05-21T11:53:03.800Z,99993.39
2023-05-21T11:58:09.205Z,99984.95
2023-05-21T12:03:14.616Z,99980.38
2023-05-21T12:08:28.262Z,99984.23
2023-05-21T12:13:32.218Z,99982.06
2023-05-21T12:18:37.274Z,99979.91
2023-05-21T12:23:40.238Z,99986.87
2023-05-21T12:28:43.426Z,99985.97
2023-05-21T12:33:51.516Z,99977.65
2023-05-21T12:38:55.312Z,99978.67
2023-05-21T12:43:58.312Z,99979.14
2023-05-21T12:49:01.435Z,99975.19
2023-05-21T12:54:04.711Z,99974.17
2023-05-21T12:59:13.614Z,99969.98
2023-05-21T13:04:20.309Z,99967.74
2023-05-21T13:09:23.293Z,99960.70
2023-05-21T13:14:26.267Z,99963.41
2023-05-21T13:19:29.431Z,99965.98
2023-05-21T13:24:32.555Z,99973.60
2023-05-21T13:29:38.150Z,99973.88
2023-05-21T13:34:41.198Z,99969.58
2023-05-21T13:39:44.173Z,99967.76
2023-05-21T13:44:48.165Z,99960.21
2023-05-21T13:49:51.711Z,99965.26
2023-05-21T13:54:54.862Z,99959.42
2023-05-21T13:59:59.602Z,99958.67
2023-05-21T14:05:02.637Z,99956.02
2023-05-21T14:10:06.404Z,99950.52
2023-05-21T14:15:10.310Z,99946.15
2023-05-21T14:20:13.429Z,99942.98
2023-05-21T14:25:16.371Z,99945.86
2023-05-21T14:30:19.316Z,99941.27
2023-05-21T14:35:24.935Z,99938.23
2023-05-21T14:40:29.875Z,99938.27
2023-05-21T14:45:35.623Z,99934.83
2023-05-21T14:50:39.740Z,99926.92
2023-05-21T14:55:43.008Z,99926.27
2023-05-21T15:00:46.196Z,99923.70
2023-05-21T15:05:49.280Z,99921.67
2023-05-21T15:10:52.659Z,99918.29
2023-05-21T15:15:58.417Z,99914.16
2023-05-21T15:21:01.473Z,99912.51
2023-05-21T15:26:04.653Z,99913.78
2023-05-21T15:31:07.648Z,99911.41
2023-05-21T15:36:10.895Z,99907.59
2023-05-21T15:41:13.916Z,99903.51
2023-05-21T15:46:16.920Z,99903.54
2023-05-21T15:51:20.178Z,99898.83
2023-05-21T15:56:23.152Z,99900.23
2023-05-21T16:01:27.653Z,99897.52
2023-05-21T16:06:31.677Z,99896.79
2023-05-21T16:11:35.468Z,99898.99
2023-05-21T16:16:39.450Z,99900.07
2023-05-21T16:21:45.514Z,99897.92
2023-05-21T16:26:49.567Z,99898.55
2023-05-21T16:31:52.587Z,99899.36
2023-05-21T16:36:56.512Z,99896.63
2023-05-21T16:41:59.893Z,99892.82
2023-05-21T16:47:04.443Z,99896.73
2023-05-21T16:52:07.408Z,99899.34
2023-05-21T16:57:10.253Z,99904.02
2023-05-21T17:02:16.323Z,99904.46
2023-05-21T17:07:19.847Z,99904.22
2023-05-21T17:12:22.924Z,99907.54
2023-05-21T17:17:26.024Z,99904.41
2023-05-21T17:22:29.132Z,99907.14
2023-05-21T17:27:32.557Z,99909.70
2023-05-21T17:32:36.069Z,99907.88
2023-05-21T17:37:39.069Z,99908.09
2023-05-21T17:42:41.958Z,99907.04
2023-05-21T17:47:45.049Z,99900.40
2023-05-21T17:52:48.034Z,99894.53
2023-05-21T17:57:51.028Z,99891.54
2023-05-21T18:02:54.110Z,99899.67
2023-05-21T18:07:57.224Z,99898.21
2023-05-21T18:13:00.058Z,99902.29
2023-05-21T18:18:03.253Z,99902.44
2023-05-21T18:23:06.289Z,99905.79
2023-05-21T18:28:10.197Z,99911.67
2023-05-21T18:33:15.296Z,99913.04
2023-05-21T18:38:18.349Z,99912.00
2023-05-21T18:43:21.400Z,99910.98
2023-05-21T18:48:24.407Z,99918.17
2023-05-21T18:53:27.798Z,99918.15
2023-05-21T18:58:30.968Z,99918.04
2023-05-21T19:03:33.949Z,99919.61
2023-05-21T19:08:36.961Z,99921.16
2023-05-21T19:13:39.949Z,99921.90
2023-05-21T19:18:43.869Z,99925.02
2023-05-21T19:23:53.295Z,99921.77
2023-05-21T19:28:57.198Z,99920.81
2023-05-21T19:34:00.108Z,99921.40
2023-05-21T19:39:04.333Z,99921.05
2023-05-21T19:44:07.352Z,99917.25
2023-05-21T19:49:14.670Z,99908.52
2023-05-21T19:54:18.681Z,99907.42
2023-05-21T19:59:21.721Z,99902.69
2023-05-21T20:04:24.957Z,99897.52
2023-05-21T20:09:28.119Z,99896.44
2023-05-21T20:14:33.614Z,99895.30
2023-05-21T20:19:37.863Z,99893.01
2023-05-21T20:24:42.531Z,99892.19
2023-05-21T20:29:46.561Z,99901.23
2023-05-21T20:35:02.154Z,99905.77
2023-05-21T20:40:07.262Z,99908.02
2023-05-21T20:45:12.914Z,99911.84
2023-05-21T20:50:17.786Z,99912.06
2023-05-21T20:55:21.284Z,99916.96
2023-05-21T21:00:24.731Z,99918.91
2023-05-21T21:05:37.651Z,99918.19
2023-05-21T21:10:42.493Z,99921.48
2023-05-21T21:15:45.617Z,99918.17
2023-05-21T21:20:49.888Z,99914.06
2023-05-21T21:25:53.011Z,99920.31
2023-05-21T21:30:56.165Z,99918.83
2023-05-21T21:36:00.982Z,99915.49
2023-05-21T21:41:03.992Z,99910.70
2023-05-21T21:46:07.078Z,99912.38
2023-05-21T21:51:10.416Z,99911.71
2023-05-21T21:56:13.248Z,99911.36
2023-05-21T22:01:16.193Z,99904.48
2023-05-21T22:06:19.238Z,99906.66
2023-05-21T22:11:22.846Z,99903.65
2023-05-21T22:16:27.649Z,99901.54
2023-05-21T22:21:33.201Z,99898.98
2023-05-21T22:26:36.238Z,99902.88
2023-05-21T22:31:39.306Z,99903.84
2023-05-21T22:36:43.642Z,99900.04
2023-05-21T22:41:46.705Z,99899.52
2023-05-21T22:46:49.827Z,99898.48
2023-05-21T22:51:54.358Z,99895.98
2023-05-21T22:56:57.329Z,99899.36
2023-05-21T23:02:00.453Z,99891.91
2023-05-21T23:07:03.922Z,99882.10
2023-05-21T23:12:07.887Z,99882.36
2023-05-21T23:17:11.165Z,99879.50
2023-05-21T23:22:14.031Z,99877.20
2023-05-21T23:27:17.158Z,99878.92
2023-05-21T23:32:20.247Z,99877.64
2023-05-21T23:37:23.470Z,99878.45
2023-05-21T23:42:26.471Z,99880.31
2023-05-21T23:47:29.473Z,99874.23
2023-05-21T23:52:32.480Z,99873.60
2023-05-21T23:57:35.463Z,99873.35
